Terminal Aerodrome Forecast
Issued by NWS

Home | Current Version | Previous Version | Text Only | Print | Product List | Glossary On
Versions: 1 2 3 4 5 6 7 8 9 10 11 12 13 14 15 16 17
000
FTUS44 KLZK 271700
TAFHOT
TAF
KHOT 271720Z 2718/2818 03009KT P6SM SCT030 BKN080
     FM272100 35012KT P6SM SCT060 BKN250
     FM280000 02004KT P6SM SCT100 BKN250
     FM280800 14004KT P6SM SCT050 BKN100
     FM281400 12012KT P6SM SCT025 BKN050
      TEMPO 2814/2818 5SM -SHRA BKN025=

USA.gov is the U.S. government's official web portal to all federal, state and local government web resources and services.